WetterOnline ( https://www.wetteronline.de )

Wetter aktuell Marne

Aktuelles Wetter: Heide/Elpersbüttel (5m)

6-stündlich | Neueste Meldungen
Ortszeit Temperatur Wetter
Sa, 18.09. 14:00 16.4° C Sprühregen
Sa, 18.09. 8:00 14.1° C bedeckt
Sa, 18.09. 2:00 13.4° C bedeckt
Fr, 17.09. 20:00 12.8° C leicht bewölkt
Fr, 17.09. 14:00 14.9° C bewölkt
Fr, 17.09. 8:00 13.0° C bedeckt
Fr, 17.09. 2:00 14.9° C bedeckt
Do, 16.09. 20:00 16.8° C bedeckt
Ortszeit Temperatur Wetter
Sa, 18.09. 18:30 16.5° C leicht bewölkt
Sa, 18.09. 18:20 16.5° C leicht bewölkt
Sa, 18.09. 18:10 16.5° C leicht bewölkt
Sa, 18.09. 18:00 16.6° C bewölkt
Sa, 18.09. 17:50 16.6° C bewölkt
Sa, 18.09. 17:40 16.6° C bewölkt
Sa, 18.09. 17:30 16.8° C bewölkt
Sa, 18.09. 17:00 16.8° C bedeckt
Sa, 18.09. 16:30 16.2° C bedeckt
Sa, 18.09. 16:00 16.6° C bedeckt
Sa, 18.09. 15:30 15.7° C bedeckt
Ortszeit Relative Feuchte Sichtweite
Sa, 18.09. 14:00 84% 10 km
Sa, 18.09. 8:00 100% 18 km
Sa, 18.09. 2:00 96% 45 km
Fr, 17.09. 20:00 78% >70 km
Fr, 17.09. 14:00 70% >70 km
Fr, 17.09. 8:00 82% >70 km
Fr, 17.09. 2:00 81% 60 km
Do, 16.09. 20:00 86% 40 km
Ortszeit Relative Feuchte Sichtweite
Sa, 18.09. 18:30 80% >70 km
Sa, 18.09. 18:20 80% -
Sa, 18.09. 18:10 82% -
Sa, 18.09. 18:00 82% 50 km
Sa, 18.09. 17:50 82% -
Sa, 18.09. 17:40 82% -
Sa, 18.09. 17:30 81% 60 km
Sa, 18.09. 17:00 84% 60 km
Sa, 18.09. 16:30 87% 50 km
Sa, 18.09. 16:00 86% 50 km
Sa, 18.09. 15:30 91% 60 km
Ortszeit Niederschlagsmenge Niederschlagsart
Sa, 18.09. 14:00 0.1 l/m2 in 6 Std. Regen
Sa, 18.09. 8:00 0.1 l/m2 in 12 Std. Sprühregen
Sa, 18.09. 2:00 0.1 l/m2 in 6 Std. Sprühregen
Fr, 17.09. 20:00 0.0 l/m2 in 12 Std. -
Fr, 17.09. 14:00 0.0 l/m2 in 6 Std. -
Fr, 17.09. 8:00 0.1 l/m2 in 12 Std. -
Fr, 17.09. 2:00 0.1 l/m2 in 6 Std. Regen
Do, 16.09. 20:00 1 l/m2 in 12 Std. Regen
Ortszeit Niederschlagsmenge Niederschlagsart
Sa, 18.09. 18:30 0.0 l/m2 in 1 Std. -
Sa, 18.09. 18:20 keine Meldung -
Sa, 18.09. 18:10 keine Meldung -
Sa, 18.09. 18:00 0.0 l/m2 in 1 Std. -
Sa, 18.09. 17:50 keine Meldung -
Sa, 18.09. 17:40 keine Meldung -
Sa, 18.09. 17:30 0.0 l/m2 in 1 Std. -
Sa, 18.09. 17:00 0.1 l/m2 in 1 Std. Regen
Sa, 18.09. 16:30 0.1 l/m2 in 1 Std. Schneeregen
Sa, 18.09. 16:00 0.1 l/m2 in 1 Std. Regen
Sa, 18.09. 15:30 0.1 l/m2 in 1 Std. Schneeregen
Ortszeit Stärke Spitze Richtung
km/h Bft. km/h Grad Sektor
Sa, 18.09. 14:00 7 2 18 80° O
Sa, 18.09. 8:00 0 0 18 - -
Sa, 18.09. 2:00 7 2 22 30° NO
Fr, 17.09. 20:00 13 3 37 320° NW
Fr, 17.09. 14:00 24 4 39 330° NW
Fr, 17.09. 8:00 11 2 32 320° NW
Fr, 17.09. 2:00 18 3 50 320° NW
Do, 16.09. 20:00 30 5 54 300° NW
Ortszeit Stärke Spitze Richtung
km/h Bft. km/h Grad Sektor
Sa, 18.09. 18:30 7 2 22 80° O
Sa, 18.09. 18:20 7 2 - 80° O
Sa, 18.09. 18:10 6 1 - 60° NO
Sa, 18.09. 18:00 7 2 18 60° NO
Sa, 18.09. 17:50 7 2 - 60° NO
Sa, 18.09. 17:40 6 1 - 70° O
Sa, 18.09. 17:30 9 2 17 60° NO
Sa, 18.09. 17:00 7 2 22 80° O
Sa, 18.09. 16:30 7 2 22 90° O
Sa, 18.09. 16:00 9 2 20 80° O
Sa, 18.09. 15:30 4 1 11 150° SO
Ortszeit Untergrenze Bedeckung Gattung
total tief tief mittel hoch
Sa, 18.09. 14:00 450 m 8/8 8/8 - - -
Sa, 18.09. 8:00 750 m 8/8 8/8 - - -
Sa, 18.09. 2:00 1110 m 8/8 8/8 - - -
Fr, 17.09. 20:00 780 m 4/8 4/8 - - -
Fr, 17.09. 14:00 870 m 7/8 7/8 - - -
Fr, 17.09. 8:00 1080 m 8/8 8/8 - - -
Fr, 17.09. 2:00 720 m 8/8 8/8 - - -
Do, 16.09. 20:00 510 m 8/8 8/8 - - -
Ortszeit Bedeckungsgrad in Achtel und Wolkenuntergrenze
Sa, 18.09. 18:30 1(630m) 4(9000m)
Sa, 18.09. 18:20 1(630m) 2(1410m) 4(9000m)
Sa, 18.09. 18:10 1(630m) 2(1500m) 5(9000m)
Sa, 18.09. 18:00 1(630m) 7(1500m)
Sa, 18.09. 17:50 1(630m) 7(1500m)
Sa, 18.09. 17:40 1(600m) 7(1500m)
Sa, 18.09. 17:30 1(570m) 4(1470m) 7(1500m)
Sa, 18.09. 17:00 5(1350m) 8(1500m)
Sa, 18.09. 16:30 2(480m) 8(1380m) 8(1500m)
Sa, 18.09. 16:00 3(390m) 7(720m) 8(1500m)
Sa, 18.09. 15:30 1(360m) 8(1110m) 8(1230m)
Ortszeit Luftdruck NN (hPa) Tendenz (hPa in 3 Std.)
Sa, 18.09. 14:00 1019 + 0,6
Sa, 18.09. 8:00 1017 + 0,8
Sa, 18.09. 2:00 1016 + 0,2
Fr, 17.09. 20:00 1015 + 0,2
Fr, 17.09. 14:00 1015 + 0,1
Fr, 17.09. 8:00 1015 + 0,5
Fr, 17.09. 2:00 1014 + 0,8
Do, 16.09. 20:00 1012 + 0,3
Ortszeit Luftdruck NN (hPa) Tendenz (hPa in 3 Std.)
Sa, 18.09. 18:30 1019 - 0,4
Sa, 18.09. 18:20 1019 keine Meldung
Sa, 18.09. 18:10 1019 keine Meldung
Sa, 18.09. 18:00 1019 - 0,3
Sa, 18.09. 17:50 1019 keine Meldung
Sa, 18.09. 17:40 1019 keine Meldung
Sa, 18.09. 17:30 1019 - 0,3
Sa, 18.09. 17:00 1019 - 0,3
Sa, 18.09. 16:30 1019 0,0
Sa, 18.09. 16:00 1019 + 0,1
Sa, 18.09. 15:30 1019 + 0,4
Ortszeit Schneehöhe (cm)
Sa, 18.09. 14:00 -
Sa, 18.09. 8:00 -
Sa, 18.09. 2:00 -
Fr, 17.09. 20:00 -
Fr, 17.09. 14:00 -
Fr, 17.09. 8:00 -
Fr, 17.09. 2:00 -
Do, 16.09. 20:00 -
Ortszeit Schneehöhe (cm)
Sa, 18.09. 18:30 -
Sa, 18.09. 18:20 -
Sa, 18.09. 18:10 -
Sa, 18.09. 18:00 -
Sa, 18.09. 17:50 -
Sa, 18.09. 17:40 -
Sa, 18.09. 17:30 -
Sa, 18.09. 17:00 -
Sa, 18.09. 16:30 -
Sa, 18.09. 16:00 -
Sa, 18.09. 15:30 -
Link zu dieser Seite / Seite empfehlen

Das Wetter in ...